sensor_id;sensor_type;location;lat;lon;timestamp;pressure;altitude;pressure_sealevel;temperature;humidity
35519;BME280;21627;48.216;16.482;2023-03-11T00:00:45;97787.25;;;9.34;61.60
35519;BME280;21627;48.216;16.482;2023-03-11T00:03:16;97765.81;;;9.31;59.20
35519;BME280;21627;48.216;16.482;2023-03-11T00:05:45;97773.31;;;9.41;58.34
35519;BME280;21627;48.216;16.482;2023-03-11T00:08:17;97757.25;;;9.29;58.62
35519;BME280;21627;48.216;16.482;2023-03-11T00:10:47;97753.25;;;9.19;58.32
35519;BME280;21627;48.216;16.482;2023-03-11T00:13:17;97763.63;;;9.18;57.75
35519;BME280;21627;48.216;16.482;2023-03-11T00:15:48;97782.38;;;9.23;57.89
35519;BME280;21627;48.216;16.482;2023-03-11T00:18:16;97768.06;;;9.11;57.96
35519;BME280;21627;48.216;16.482;2023-03-11T00:20:46;97786.66;;;9.24;57.81
35519;BME280;21627;48.216;16.482;2023-03-11T00:23:14;97762.22;;;9.37;56.25
35519;BME280;21627;48.216;16.482;2023-03-11T00:25:44;97777.91;;;9.29;57.47
35519;BME280;21627;48.216;16.482;2023-03-11T00:28:12;97766.91;;;9.23;57.66
35519;BME280;21627;48.216;16.482;2023-03-11T00:30:41;97744.56;;;9.22;58.06
35519;BME280;21627;48.216;16.482;2023-03-11T00:33:12;97754.84;;;9.25;58.46
35519;BME280;21627;48.216;16.482;2023-03-11T00:35:40;97757.31;;;9.28;58.22
35519;BME280;21627;48.216;16.482;2023-03-11T00:38:14;97781.56;;;9.21;58.90
35519;BME280;21627;48.216;16.482;2023-03-11T00:40:43;97789.66;;;9.07;58.90
35519;BME280;21627;48.216;16.482;2023-03-11T00:43:10;97832.31;;;9.20;63.22
35519;BME280;21627;48.216;16.482;2023-03-11T00:45:38;97808.69;;;9.01;72.17
35519;BME280;21627;48.216;16.482;2023-03-11T00:48:06;97812.66;;;8.44;76.85
35519;BME280;21627;48.216;16.482;2023-03-11T00:50:35;97818.97;;;8.28;80.29
35519;BME280;21627;48.216;16.482;2023-03-11T00:53:04;97816.81;;;8.08;81.76
35519;BME280;21627;48.216;16.482;2023-03-11T00:55:33;97839.44;;;7.94;80.49
35519;BME280;21627;48.216;16.482;2023-03-11T00:58:04;97828.41;;;7.87;81.11
35519;BME280;21627;48.216;16.482;2023-03-11T01:00:32;97822.59;;;7.79;82.04
35519;BME280;21627;48.216;16.482;2023-03-11T01:03:00;97838.13;;;7.74;81.64
35519;BME280;21627;48.216;16.482;2023-03-11T01:05:32;97823.59;;;7.70;80.97
35519;BME280;21627;48.216;16.482;2023-03-11T01:08:00;97830.63;;;7.62;79.69
35519;BME280;21627;48.216;16.482;2023-03-11T01:10:30;97854.53;;;7.67;78.58
35519;BME280;21627;48.216;16.482;2023-03-11T01:12:58;97861.56;;;7.59;80.49
35519;BME280;21627;48.216;16.482;2023-03-11T01:15:30;97881.09;;;7.69;79.53
35519;BME280;21627;48.216;16.482;2023-03-11T01:17:57;97874.34;;;7.62;79.41
35519;BME280;21627;48.216;16.482;2023-03-11T01:20:24;97893.09;;;7.69;77.21
35519;BME280;21627;48.216;16.482;2023-03-11T01:22:52;97904.22;;;7.69;79.18
35519;BME280;21627;48.216;16.482;2023-03-11T01:25:22;97894.00;;;7.66;77.64
35519;BME280;21627;48.216;16.482;2023-03-11T01:27:50;97897.50;;;7.61;77.16
35519;BME280;21627;48.216;16.482;2023-03-11T01:30:23;97902.66;;;7.61;75.93
35519;BME280;21627;48.216;16.482;2023-03-11T01:32:52;97889.91;;;7.56;74.69
35519;BME280;21627;48.216;16.482;2023-03-11T01:35:22;97887.28;;;7.57;75.49
35519;BME280;21627;48.216;16.482;2023-03-11T01:37:50;97882.88;;;7.64;72.65
35519;BME280;21627;48.216;16.482;2023-03-11T01:40:42;97887.97;;;7.67;72.11
35519;BME280;21627;48.216;16.482;2023-03-11T01:46:26;97863.38;;;7.54;67.15
35519;BME280;21627;48.216;16.482;2023-03-11T01:48:58;97892.38;;;7.61;65.69
35519;BME280;21627;48.216;16.482;2023-03-11T01:51:40;97897.34;;;7.70;61.05
35519;BME280;21627;48.216;16.482;2023-03-11T01:54:16;97899.16;;;7.66;59.51
35519;BME280;21627;48.216;16.482;2023-03-11T01:56:44;97895.13;;;7.50;59.96
35519;BME280;21627;48.216;16.482;2023-03-11T01:59:16;97934.41;;;7.58;59.89
35519;BME280;21627;48.216;16.482;2023-03-11T02:01:54;97914.47;;;7.72;56.66
35519;BME280;21627;48.216;16.482;2023-03-11T02:04:27;97914.53;;;7.69;54.87
35519;BME280;21627;48.216;16.482;2023-03-11T02:06:55;97938.63;;;7.64;54.01
35519;BME280;21627;48.216;16.482;2023-03-11T02:09:23;97947.19;;;7.64;52.40
35519;BME280;21627;48.216;16.482;2023-03-11T02:11:53;97921.75;;;7.47;51.61
35519;BME280;21627;48.216;16.482;2023-03-11T02:14:22;97952.66;;;7.44;50.98
35519;BME280;21627;48.216;16.482;2023-03-11T02:16:50;97958.78;;;7.35;51.24
35519;BME280;21627;48.216;16.482;2023-03-11T02:22:19;97948.81;;;7.19;50.78
35519;BME280;21627;48.216;16.482;2023-03-11T02:27:51;97944.03;;;6.94;49.82
35519;BME280;21627;48.216;16.482;2023-03-11T02:30:22;97965.38;;;6.98;50.04
35519;BME280;21627;48.216;16.482;2023-03-11T02:32:49;97973.13;;;6.96;49.73
35519;BME280;21627;48.216;16.482;2023-03-11T02:35:17;97955.47;;;6.71;49.26
35519;BME280;21627;48.216;16.482;2023-03-11T02:37:47;97959.72;;;6.72;49.66
35519;BME280;21627;48.216;16.482;2023-03-11T02:42:57;97962.53;;;6.53;50.60
35519;BME280;21627;48.216;16.482;2023-03-11T02:45:26;97952.34;;;6.48;50.38
35519;BME280;21627;48.216;16.482;2023-03-11T02:47:56;97967.88;;;6.37;50.66
35519;BME280;21627;48.216;16.482;2023-03-11T02:50:25;97973.88;;;6.35;50.77
35519;BME280;21627;48.216;16.482;2023-03-11T02:52:54;97969.88;;;6.14;51.09
35519;BME280;21627;48.216;16.482;2023-03-11T02:55:22;98000.56;;;6.20;51.47
35519;BME280;21627;48.216;16.482;2023-03-11T02:57:49;97973.22;;;6.20;51.85
35519;BME280;21627;48.216;16.482;2023-03-11T03:00:17;97989.50;;;6.18;51.68
35519;BME280;21627;48.216;16.482;2023-03-11T03:02:45;97988.72;;;6.11;51.60
35519;BME280;21627;48.216;16.482;2023-03-11T03:05:12;97986.19;;;6.08;50.69
35519;BME280;21627;48.216;16.482;2023-03-11T03:07:39;98002.41;;;6.09;51.26
35519;BME280;21627;48.216;16.482;2023-03-11T03:10:08;97990.50;;;6.01;51.54
35519;BME280;21627;48.216;16.482;2023-03-11T03:12:35;97987.16;;;5.93;51.37
35519;BME280;21627;48.216;16.482;2023-03-11T03:15:03;97999.22;;;5.85;51.24
35519;BME280;21627;48.216;16.482;2023-03-11T03:17:30;98005.25;;;5.78;50.57
35519;BME280;21627;48.216;16.482;2023-03-11T03:19:58;98020.50;;;5.92;52.07
35519;BME280;21627;48.216;16.482;2023-03-11T03:22:25;98019.75;;;5.80;51.10
35519;BME280;21627;48.216;16.482;2023-03-11T03:24:53;98034.19;;;5.92;50.60
35519;BME280;21627;48.216;16.482;2023-03-11T03:27:20;98008.66;;;5.80;51.62
35519;BME280;21627;48.216;16.482;2023-03-11T03:29:47;98029.06;;;5.89;50.60
35519;BME280;21627;48.216;16.482;2023-03-11T03:32:14;98019.00;;;5.72;50.97
35519;BME280;21627;48.216;16.482;2023-03-11T03:34:42;98035.22;;;5.73;51.37
35519;BME280;21627;48.216;16.482;2023-03-11T03:37:09;98032.50;;;5.88;51.15
35519;BME280;21627;48.216;16.482;2023-03-11T03:39:36;98033.44;;;5.79;51.44
35519;BME280;21627;48.216;16.482;2023-03-11T03:42:03;98036.94;;;5.71;51.41
35519;BME280;21627;48.216;16.482;2023-03-11T03:44:30;98048.09;;;5.63;51.96
35519;BME280;21627;48.216;16.482;2023-03-11T03:46:58;98036.13;;;5.64;49.21
35519;BME280;21627;48.216;16.482;2023-03-11T03:49:26;98045.53;;;5.65;50.14
35519;BME280;21627;48.216;16.482;2023-03-11T03:51:53;98028.53;;;5.55;51.40
35519;BME280;21627;48.216;16.482;2023-03-11T03:54:20;98046.50;;;5.49;52.35
35519;BME280;21627;48.216;16.482;2023-03-11T03:56:47;98035.34;;;5.56;52.40
35519;BME280;21627;48.216;16.482;2023-03-11T03:59:14;98014.91;;;5.45;51.73
35519;BME280;21627;48.216;16.482;2023-03-11T04:01:41;98055.84;;;5.54;51.91
35519;BME280;21627;48.216;16.482;2023-03-11T04:04:08;98033.72;;;5.46;50.97
35519;BME280;21627;48.216;16.482;2023-03-11T04:06:36;98031.22;;;5.35;50.53
35519;BME280;21627;48.216;16.482;2023-03-11T04:09:03;98052.53;;;5.41;49.01
35519;BME280;21627;48.216;16.482;2023-03-11T04:11:31;98044.91;;;5.31;49.52
35519;BME280;21627;48.216;16.482;2023-03-11T04:13:58;98014.25;;;5.18;49.01
35519;BME280;21627;48.216;16.482;2023-03-11T04:16:26;98043.28;;;5.17;48.92
35519;BME280;21627;48.216;16.482;2023-03-11T04:18:56;98032.28;;;5.05;49.69
35519;BME280;21627;48.216;16.482;2023-03-11T04:21:23;98052.81;;;4.95;49.98
35519;BME280;21627;48.216;16.482;2023-03-11T04:23:50;98039.88;;;5.14;49.65
35519;BME280;21627;48.216;16.482;2023-03-11T04:26:18;98032.28;;;4.98;50.00
35519;BME280;21627;48.216;16.482;2023-03-11T04:28:45;98046.81;;;4.99;49.67
35519;BME280;21627;48.216;16.482;2023-03-11T04:31:12;98039.16;;;4.89;50.62
35519;BME280;21627;48.216;16.482;2023-03-11T04:33:39;98023.91;;;4.67;51.28
35519;BME280;21627;48.216;16.482;2023-03-11T04:36:08;98054.63;;;4.70;51.58
35519;BME280;21627;48.216;16.482;2023-03-11T04:38:35;98022.28;;;4.49;50.33
35519;BME280;21627;48.216;16.482;2023-03-11T04:41:06;98040.13;;;4.63;49.66
35519;BME280;21627;48.216;16.482;2023-03-11T04:43:34;98049.53;;;4.58;50.03
35519;BME280;21627;48.216;16.482;2023-03-11T04:46:01;98024.84;;;4.49;48.49
35519;BME280;21627;48.216;16.482;2023-03-11T04:48:28;98031.72;;;4.41;48.48
35519;BME280;21627;48.216;16.482;2023-03-11T04:50:56;98031.63;;;4.53;48.08
35519;BME280;21627;48.216;16.482;2023-03-11T04:53:23;98018.91;;;4.30;48.24
35519;BME280;21627;48.216;16.482;2023-03-11T04:55:50;98025.75;;;4.31;48.13
35519;BME280;21627;48.216;16.482;2023-03-11T04:58:19;98035.13;;;4.29;47.75
35519;BME280;21627;48.216;16.482;2023-03-11T05:00:46;98025.75;;;4.31;47.82
35519;BME280;21627;48.216;16.482;2023-03-11T05:03:14;98024.06;;;4.18;47.52
35519;BME280;21627;48.216;16.482;2023-03-11T05:05:41;98027.53;;;4.11;47.69
35519;BME280;21627;48.216;16.482;2023-03-11T05:08:08;98025.81;;;4.05;47.83
35519;BME280;21627;48.216;16.482;2023-03-11T05:10:36;98032.63;;;4.12;47.42
35519;BME280;21627;48.216;16.482;2023-03-11T05:13:03;98024.97;;;4.02;48.02
35519;BME280;21627;48.216;16.482;2023-03-11T05:15:30;98020.72;;;4.01;48.51
35519;BME280;21627;48.216;16.482;2023-03-11T05:17:58;98020.72;;;4.04;47.93
35519;BME280;21627;48.216;16.482;2023-03-11T05:20:26;98035.22;;;3.96;47.91
35519;BME280;21627;48.216;16.482;2023-03-11T05:22:53;98043.72;;;3.99;48.02
35519;BME280;21627;48.216;16.482;2023-03-11T05:25:20;98029.22;;;3.95;47.83
35519;BME280;21627;48.216;16.482;2023-03-11T05:27:47;98040.31;;;4.02;46.99
35519;BME280;21627;48.216;16.482;2023-03-11T05:30:15;98030.06;;;4.08;46.54
35519;BME280;21627;48.216;16.482;2023-03-11T05:32:42;98050.53;;;4.09;47.12
35519;BME280;21627;48.216;16.482;2023-03-11T05:35:10;98026.69;;;3.94;47.48
35519;BME280;21627;48.216;16.482;2023-03-11T05:37:37;98031.81;;;3.92;47.63
35519;BME280;21627;48.216;16.482;2023-03-11T05:40:10;98036.03;;;3.98;47.63
35519;BME280;21627;48.216;16.482;2023-03-11T05:42:38;98030.09;;;4.02;47.51
35519;BME280;21627;48.216;16.482;2023-03-11T05:45:08;98019.88;;;3.99;47.75
35519;BME280;21627;48.216;16.482;2023-03-11T05:47:35;98032.66;;;3.97;47.43
35519;BME280;21627;48.216;16.482;2023-03-11T05:50:03;98042.84;;;4.05;47.20
35519;BME280;21627;48.216;16.482;2023-03-11T05:52:31;98030.06;;;4.09;46.80
35519;BME280;21627;48.216;16.482;2023-03-11T05:55:00;98032.59;;;4.16;47.13
35519;BME280;21627;48.216;16.482;2023-03-11T05:57:27;98026.63;;;4.15;46.81
35519;BME280;21627;48.216;16.482;2023-03-11T05:59:54;98038.59;;;4.10;46.75
35519;BME280;21627;48.216;16.482;2023-03-11T06:02:21;98018.13;;;4.10;46.72
35519;BME280;21627;48.216;16.482;2023-03-11T06:04:49;98026.63;;;4.27;46.38
35519;BME280;21627;48.216;16.482;2023-03-11T06:07:16;98030.91;;;4.18;46.60
35519;BME280;21627;48.216;16.482;2023-03-11T06:09:43;98021.53;;;4.26;46.77
35519;BME280;21627;48.216;16.482;2023-03-11T06:12:11;98021.50;;;4.27;47.35
35519;BME280;21627;48.216;16.482;2023-03-11T06:14:41;98027.44;;;4.32;46.60
35519;BME280;21627;48.216;16.482;2023-03-11T06:17:08;98040.22;;;4.37;47.01
35519;BME280;21627;48.216;16.482;2023-03-11T06:19:35;98051.31;;;4.39;46.45
35519;BME280;21627;48.216;16.482;2023-03-11T06:22:02;98049.59;;;4.43;45.95
35519;BME280;21627;48.216;16.482;2023-03-11T06:24:29;98057.28;;;4.43;46.04
35519;BME280;21627;48.216;16.482;2023-03-11T06:26:56;98046.22;;;4.39;45.63
35519;BME280;21627;48.216;16.482;2023-03-11T06:29:24;98033.44;;;4.36;46.01
35519;BME280;21627;48.216;16.482;2023-03-11T06:31:52;98049.56;;;4.52;46.45
35519;BME280;21627;48.216;16.482;2023-03-11T06:34:19;98057.25;;;4.52;46.40
35519;BME280;21627;48.216;16.482;2023-03-11T06:36:47;98062.34;;;4.60;46.48
35519;BME280;21627;48.216;16.482;2023-03-11T06:39:14;98070.00;;;4.63;46.95
35519;BME280;21627;48.216;16.482;2023-03-11T06:41:41;98061.50;;;4.58;47.13
35519;BME280;21627;48.216;16.482;2023-03-11T06:44:10;98077.66;;;4.66;46.80
35519;BME280;21627;48.216;16.482;2023-03-11T06:46:37;98077.69;;;4.60;46.92
35519;BME280;21627;48.216;16.482;2023-03-11T06:49:05;98084.53;;;4.59;46.76
35519;BME280;21627;48.216;16.482;2023-03-11T06:51:32;98087.09;;;4.64;47.16
35519;BME280;21627;48.216;16.482;2023-03-11T06:53:59;98098.97;;;4.71;47.65
35519;BME280;21627;48.216;16.482;2023-03-11T06:56:27;98099.81;;;4.81;47.06
35519;BME280;21627;48.216;16.482;2023-03-11T06:58:56;98099.78;;;4.84;46.72
35519;BME280;21627;48.216;16.482;2023-03-11T07:01:25;98098.91;;;4.95;46.75
35519;BME280;21627;48.216;16.482;2023-03-11T07:03:53;98090.38;;;4.93;46.97
35519;BME280;21627;48.216;16.482;2023-03-11T07:06:23;98102.28;;;5.07;46.77
35519;BME280;21627;48.216;16.482;2023-03-11T07:08:52;98115.06;;;5.14;45.94
35519;BME280;21627;48.216;16.482;2023-03-11T07:11:23;98090.31;;;5.12;45.98
35519;BME280;21627;48.216;16.482;2023-03-11T07:13:52;98120.16;;;5.16;46.38
35519;BME280;21627;48.216;16.482;2023-03-11T07:16:26;98120.19;;;5.08;46.35
35519;BME280;21627;48.216;16.482;2023-03-11T07:18:57;98143.22;;;5.14;46.78
35519;BME280;21627;48.216;16.482;2023-03-11T07:21:28;98138.97;;;5.12;46.83
35519;BME280;21627;48.216;16.482;2023-03-11T07:23:59;98125.31;;;5.10;46.12
35519;BME280;21627;48.216;16.482;2023-03-11T07:26:28;98144.06;;;5.16;46.77
35519;BME280;21627;48.216;16.482;2023-03-11T07:28:56;98143.19;;;5.20;46.38
35519;BME280;21627;48.216;16.482;2023-03-11T07:31:28;98159.41;;;5.27;46.54
35519;BME280;21627;48.216;16.482;2023-03-11T07:34:02;98138.91;;;5.26;46.26
35519;BME280;21627;48.216;16.482;2023-03-11T07:36:30;98178.13;;;5.43;46.09
35519;BME280;21627;48.216;16.482;2023-03-11T07:39:02;98166.09;;;5.51;45.67
35519;BME280;21627;48.216;16.482;2023-03-11T07:41:34;98154.09;;;5.61;45.80
35519;BME280;21627;48.216;16.482;2023-03-11T07:44:03;98161.69;;;5.76;45.75
35519;BME280;21627;48.216;16.482;2023-03-11T07:46:31;98190.72;;;5.81;44.27
35519;BME280;21627;48.216;16.482;2023-03-11T07:49:00;98159.09;;;5.79;44.38
35519;BME280;21627;48.216;16.482;2023-03-11T07:51:31;98168.47;;;5.85;44.22
35519;BME280;21627;48.216;16.482;2023-03-11T07:54:00;98168.44;;;5.91;43.66
35519;BME280;21627;48.216;16.482;2023-03-11T07:56:32;98186.34;;;6.03;43.38
35519;BME280;21627;48.216;16.482;2023-03-11T07:59:02;98176.00;;;6.11;43.14
35519;BME280;21627;48.216;16.482;2023-03-11T08:01:31;98162.28;;;6.18;49.84
35519;BME280;21627;48.216;16.482;2023-03-11T08:04:09;98180.91;;;6.42;43.72
35519;BME280;21627;48.216;16.482;2023-03-11T08:06:42;98185.91;;;6.56;44.93
35519;BME280;21627;48.216;16.482;2023-03-11T08:09:10;98193.56;;;6.63;41.76
35519;BME280;21627;48.216;16.482;2023-03-11T08:11:38;98189.31;;;6.59;41.37
35519;BME280;21627;48.216;16.482;2023-03-11T08:14:05;98191.78;;;6.67;41.35
35519;BME280;21627;48.216;16.482;2023-03-11T08:16:32;98207.16;;;6.70;41.80
35519;BME280;21627;48.216;16.482;2023-03-11T08:19:00;98190.03;;;6.72;41.10
35519;BME280;21627;48.216;16.482;2023-03-11T08:21:29;98214.00;;;6.72;40.84
35519;BME280;21627;48.216;16.482;2023-03-11T08:24:00;98225.88;;;6.83;41.16
35519;BME280;21627;48.216;16.482;2023-03-11T08:26:29;98224.97;;;6.91;40.54
35519;BME280;21627;48.216;16.482;2023-03-11T08:28:57;98235.16;;;6.98;40.21
35519;BME280;21627;48.216;16.482;2023-03-11T08:31:28;98234.28;;;7.02;39.91
35519;BME280;21627;48.216;16.482;2023-03-11T08:34:00;98217.00;;;7.14;40.03
35519;BME280;21627;48.216;16.482;2023-03-11T08:36:29;98225.50;;;7.20;39.92
35519;BME280;21627;48.216;16.482;2023-03-11T08:38:57;98236.47;;;7.35;40.32
35519;BME280;21627;48.216;16.482;2023-03-11T08:41:25;98230.47;;;7.36;39.50
35519;BME280;21627;48.216;16.482;2023-03-11T08:43:56;98242.25;;;7.53;40.19
35519;BME280;21627;48.216;16.482;2023-03-11T08:46:28;98237.00;;;7.64;39.32
35519;BME280;21627;48.216;16.482;2023-03-11T08:48:57;98251.25;;;7.88;39.37
35519;BME280;21627;48.216;16.482;2023-03-11T08:51:29;98249.59;;;7.84;39.43
35519;BME280;21627;48.216;16.482;2023-03-11T08:54:01;98236.66;;;7.91;38.41
35519;BME280;21627;48.216;16.482;2023-03-11T08:56:28;98244.63;;;7.68;38.33
35519;BME280;21627;48.216;16.482;2023-03-11T08:58:55;98266.53;;;7.98;39.46
35519;BME280;21627;48.216;16.482;2023-03-11T09:01:23;98272.41;;;8.08;38.36
35519;BME280;21627;48.216;16.482;2023-03-11T09:03:50;98265.53;;;8.10;37.80
35519;BME280;21627;48.216;16.482;2023-03-11T09:06:18;98283.28;;;8.30;37.18
35519;BME280;21627;48.216;16.482;2023-03-11T09:08:47;98276.94;;;7.91;37.67
35519;BME280;21627;48.216;16.482;2023-03-11T09:11:16;98297.31;;;8.09;37.92
35519;BME280;21627;48.216;16.482;2023-03-11T09:13:44;98298.53;;;8.44;37.99
35519;BME280;21627;48.216;16.482;2023-03-11T09:16:18;98302.47;;;8.68;37.11
35519;BME280;21627;48.216;16.482;2023-03-11T09:18:46;98300.31;;;8.42;37.53
35519;BME280;21627;48.216;16.482;2023-03-11T09:21:14;98343.94;;;8.54;37.29
35519;BME280;21627;48.216;16.482;2023-03-11T09:23:41;98322.75;;;8.31;38.28
35519;BME280;21627;48.216;16.482;2023-03-11T09:26:11;98348.38;;;8.38;37.23
35519;BME280;21627;48.216;16.482;2023-03-11T09:28:39;98327.06;;;8.30;37.91
35519;BME280;21627;48.216;16.482;2023-03-11T09:31:08;98353.34;;;8.54;38.27
35519;BME280;21627;48.216;16.482;2023-03-11T09:33:38;98333.72;;;8.47;38.02
35519;BME280;21627;48.216;16.482;2023-03-11T09:36:07;98347.91;;;8.75;38.01
35519;BME280;21627;48.216;16.482;2023-03-11T09:38:34;98365.56;;;9.00;37.11
35519;BME280;21627;48.216;16.482;2023-03-11T09:41:07;98354.94;;;9.18;36.56
35519;BME280;21627;48.216;16.482;2023-03-11T09:49:59;98372.97;;;9.20;36.24
35519;BME280;21627;48.216;16.482;2023-03-11T09:55:45;98368.44;;;8.80;36.82
35519;BME280;21627;48.216;16.482;2023-03-11T10:01:33;98401.66;;;8.98;36.40
35519;BME280;21627;48.216;16.482;2023-03-11T10:06:45;98405.84;;;9.05;37.56
35519;BME280;21627;48.216;16.482;2023-03-11T10:26:48;98463.00;;;9.35;36.33
35519;BME280;21627;48.216;16.482;2023-03-11T10:29:30;98454.47;;;9.30;36.29
35519;BME280;21627;48.216;16.482;2023-03-11T10:32:47;98457.22;;;9.72;36.42
35519;BME280;21627;48.216;16.482;2023-03-11T10:35:38;98445.41;;;9.57;35.64
35519;BME280;21627;48.216;16.482;2023-03-11T10:38:13;98453.47;;;9.39;35.10
35519;BME280;21627;48.216;16.482;2023-03-11T10:40:45;98435.22;;;9.49;35.99
35519;BME280;21627;48.216;16.482;2023-03-11T10:43:25;98465.44;;;9.43;36.56
35519;BME280;21627;48.216;16.482;2023-03-11T10:45:54;98472.94;;;9.58;35.96
35519;BME280;21627;48.216;16.482;2023-03-11T10:48:24;98481.66;;;9.51;36.03
35519;BME280;21627;48.216;16.482;2023-03-11T10:51:18;98494.19;;;9.72;35.49
35519;BME280;21627;48.216;16.482;2023-03-11T10:53:58;98490.19;;;9.54;36.34
35519;BME280;21627;48.216;16.482;2023-03-11T10:56:39;98479.97;;;9.50;35.79
35519;BME280;21627;48.216;16.482;2023-03-11T10:59:33;98480.63;;;9.60;35.29
35519;BME280;21627;48.216;16.482;2023-03-11T11:02:26;98494.53;;;8.95;35.38
35519;BME280;21627;48.216;16.482;2023-03-11T11:07:50;98506.56;;;8.20;36.24
35519;BME280;21627;48.216;16.482;2023-03-11T11:13:14;98528.03;;;8.16;37.49
35519;BME280;21627;48.216;16.482;2023-03-11T11:18:36;98528.63;;;9.14;36.20
35519;BME280;21627;48.216;16.482;2023-03-11T11:21:15;98516.94;;;9.47;36.83
35519;BME280;21627;48.216;16.482;2023-03-11T11:24:05;98505.94;;;9.90;35.48
35519;BME280;21627;48.216;16.482;2023-03-11T11:26:34;98490.66;;;10.28;35.94
35519;BME280;21627;48.216;16.482;2023-03-11T11:31:44;98495.53;;;8.82;36.50
35519;BME280;21627;48.216;16.482;2023-03-11T11:34:33;98518.31;;;8.46;36.29
35519;BME280;21627;48.216;16.482;2023-03-11T11:37:04;98542.47;;;8.33;37.22
35519;BME280;21627;48.216;16.482;2023-03-11T11:39:48;98536.72;;;8.08;38.67
35519;BME280;21627;48.216;16.482;2023-03-11T11:42:18;98541.22;;;7.84;38.51
35519;BME280;21627;48.216;16.482;2023-03-11T11:44:50;98556.88;;;8.54;38.07
35519;BME280;21627;48.216;16.482;2023-03-11T11:47:27;98542.13;;;8.70;37.19
35519;BME280;21627;48.216;16.482;2023-03-11T11:50:03;98542.06;;;8.73;37.14
35519;BME280;21627;48.216;16.482;2023-03-11T11:52:36;98530.03;;;8.75;37.64
35519;BME280;21627;48.216;16.482;2023-03-11T11:57:43;98522.66;;;8.41;37.04
35519;BME280;21627;48.216;16.482;2023-03-11T12:00:23;98540.28;;;8.78;37.41
35519;BME280;21627;48.216;16.482;2023-03-11T12:03:15;98521.84;;;9.08;36.65
35519;BME280;21627;48.216;16.482;2023-03-11T12:05:55;98538.97;;;9.13;36.11
35519;BME280;21627;48.216;16.482;2023-03-11T12:08:58;98526.66;;;8.68;35.99
35519;BME280;21627;48.216;16.482;2023-03-11T12:11:40;98522.03;;;8.16;36.56
35519;BME280;21627;48.216;16.482;2023-03-11T12:14:35;98541.03;;;8.07;36.72
35519;BME280;21627;48.216;16.482;2023-03-11T12:17:08;98532.78;;;7.70;36.48
35519;BME280;21627;48.216;16.482;2023-03-11T12:19:50;98550.81;;;7.65;37.80
35519;BME280;21627;48.216;16.482;2023-03-11T12:22:48;98568.03;;;7.52;38.33
35519;BME280;21627;48.216;16.482;2023-03-11T12:28:21;98560.44;;;7.35;38.04
35519;BME280;21627;48.216;16.482;2023-03-11T12:30:55;98579.25;;;7.42;38.04
35519;BME280;21627;48.216;16.482;2023-03-11T12:33:58;98594.72;;;7.39;37.86
35519;BME280;21627;48.216;16.482;2023-03-11T12:36:36;98592.16;;;7.36;38.09
35519;BME280;21627;48.216;16.482;2023-03-11T12:39:36;98581.97;;;7.18;38.25
35519;BME280;21627;48.216;16.482;2023-03-11T12:44:38;98581.94;;;7.22;38.80
35519;BME280;21627;48.216;16.482;2023-03-11T12:49:45;98606.88;;;7.11;39.21
35519;BME280;21627;48.216;16.482;2023-03-11T12:57:49;98608.63;;;6.95;40.10
35519;BME280;21627;48.216;16.482;2023-03-11T13:01:23;98612.09;;;6.80;39.95
35519;BME280;21627;48.216;16.482;2023-03-11T13:07:03;98626.72;;;6.69;41.27
35519;BME280;21627;48.216;16.482;2023-03-11T13:09:38;98620.72;;;6.62;40.91
35519;BME280;21627;48.216;16.482;2023-03-11T13:12:43;98631.88;;;6.57;41.60
35519;BME280;21627;48.216;16.482;2023-03-11T13:18:43;98642.09;;;6.72;40.72
35519;BME280;21627;48.216;16.482;2023-03-11T13:20:49;98635.31;;;6.49;40.81
35519;BME280;21627;48.216;16.482;2023-03-11T13:23:25;98659.25;;;6.61;41.59
35519;BME280;21627;48.216;16.482;2023-03-11T13:28:56;98675.53;;;6.52;41.77
35519;BME280;21627;48.216;16.482;2023-03-11T13:35:09;98697.78;;;6.68;40.92
35519;BME280;21627;48.216;16.482;2023-03-11T13:40:43;98693.50;;;6.54;42.05
35519;BME280;21627;48.216;16.482;2023-03-11T13:48:29;98703.69;;;7.13;40.81
35519;BME280;21627;48.216;16.482;2023-03-11T13:54:01;98726.88;;;6.67;41.42
35519;BME280;21627;48.216;16.482;2023-03-11T13:56:42;98718.31;;;6.55;40.79
35519;BME280;21627;48.216;16.482;2023-03-11T13:59:37;98743.16;;;6.39;41.54
35519;BME280;21627;48.216;16.482;2023-03-11T14:04:36;98732.88;;;6.20;41.76
35519;BME280;21627;48.216;16.482;2023-03-11T14:07:28;98760.25;;;6.32;42.33
35519;BME280;21627;48.216;16.482;2023-03-11T14:10:17;98758.56;;;6.36;42.19
35519;BME280;21627;48.216;16.482;2023-03-11T14:12:45;98750.00;;;6.31;41.93
35519;BME280;21627;48.216;16.482;2023-03-11T14:15:24;98781.69;;;6.43;41.43
35519;BME280;21627;48.216;16.482;2023-03-11T14:17:53;98755.13;;;6.34;40.42
35519;BME280;21627;48.216;16.482;2023-03-11T14:20:40;98770.56;;;6.35;40.50
35519;BME280;21627;48.216;16.482;2023-03-11T14:23:17;98774.81;;;6.35;41.08
35519;BME280;21627;48.216;16.482;2023-03-11T14:25:45;98779.09;;;6.37;39.90
35519;BME280;21627;48.216;16.482;2023-03-11T14:28:19;98785.09;;;6.30;40.44
35519;BME280;21627;48.216;16.482;2023-03-11T14:30:59;98785.06;;;6.21;40.15
35519;BME280;21627;48.216;16.482;2023-03-11T14:33:27;98785.91;;;6.14;40.03
35519;BME280;21627;48.216;16.482;2023-03-11T14:36:02;98781.63;;;6.17;40.92
35519;BME280;21627;48.216;16.482;2023-03-11T14:38:30;98782.47;;;6.12;40.64
35519;BME280;21627;48.216;16.482;2023-03-11T14:41:06;98786.75;;;6.14;40.34
35519;BME280;21627;48.216;16.482;2023-03-11T14:43:40;98790.19;;;6.24;40.47
35519;BME280;21627;48.216;16.482;2023-03-11T14:46:22;98794.50;;;6.33;40.88
35519;BME280;21627;48.216;16.482;2023-03-11T14:48:54;98782.50;;;6.27;40.12
35519;BME280;21627;48.216;16.482;2023-03-11T14:51:26;98798.78;;;6.27;39.29
35519;BME280;21627;48.216;16.482;2023-03-11T14:54:20;98788.47;;;6.17;39.51
35519;BME280;21627;48.216;16.482;2023-03-11T14:57:11;98791.88;;;6.06;39.63
35519;BME280;21627;48.216;16.482;2023-03-11T14:59:43;98788.44;;;6.04;39.47
35519;BME280;21627;48.216;16.482;2023-03-11T15:03:01;98799.56;;;6.03;40.30